Terminal Aerodrome Forecast
Issued by NWS El Paso, TX

Home | Current Version | Previous Version | Text Only | Print | Product List | Glossary On
Versions: 1 2 3 4 5 6 7 8 9 10 11 12
000
FTUS44 KEPZ 221100
TAFELP
TAF
KELP 221133Z 2212/2312 35007KT P6SM VCSH BKN070
     FM221700 27014G22KT P6SM SCT070 SCT120
     FM230200 28011KT P6SM FEW250=

USA.gov is the U.S. government's official web portal to all federal, state and local government web resources and services.